sensor_id;sensor_type;location;lat;lon;timestamp;pressure;altitude;pressure_sealevel;temperature;humidity
15914;BME280;8055;51.930;8.840;2023-03-04T00:00:55;77712.31;;;-145.72;100.00
15914;BME280;8055;51.930;8.840;2023-03-04T00:03:20;77718.50;;;-145.72;100.00
15914;BME280;8055;51.930;8.840;2023-03-04T00:05:46;77718.50;;;-145.72;100.00
15914;BME280;8055;51.930;8.840;2023-03-04T00:08:12;77724.72;;;-145.72;100.00
15914;BME280;8055;51.930;8.840;2023-03-04T00:10:37;77730.94;;;-145.72;100.00
15914;BME280;8055;51.930;8.840;2023-03-04T00:13:02;77728.88;;;-145.72;100.00
15914;BME280;8055;51.930;8.840;2023-03-04T00:15:28;77735.06;;;-145.72;100.00
15914;BME280;8055;51.930;8.840;2023-03-04T00:17:53;77720.59;;;-145.72;100.00
15914;BME280;8055;51.930;8.840;2023-03-04T00:20:18;77726.78;;;-145.72;100.00
15914;BME280;8055;51.930;8.840;2023-03-04T00:22:44;77724.72;;;-145.72;100.00
15914;BME280;8055;51.930;8.840;2023-03-04T00:25:09;77730.94;;;-145.72;100.00
15914;BME280;8055;51.930;8.840;2023-03-04T00:27:35;77722.66;;;-145.72;100.00
15914;BME280;8055;51.930;8.840;2023-03-04T00:30:00;77724.72;;;-145.72;100.00
15914;BME280;8055;51.930;8.840;2023-03-04T00:32:25;77724.72;;;-145.72;100.00
15914;BME280;8055;51.930;8.840;2023-03-04T00:34:51;77724.72;;;-145.72;100.00
15914;BME280;8055;51.930;8.840;2023-03-04T00:37:16;77720.59;;;-145.72;100.00
15914;BME280;8055;51.930;8.840;2023-03-04T00:39:41;77712.31;;;-145.72;100.00
15914;BME280;8055;51.930;8.840;2023-03-04T00:42:07;77714.38;;;-145.72;100.00
15914;BME280;8055;51.930;8.840;2023-03-04T00:44:32;77712.31;;;-145.72;100.00
15914;BME280;8055;51.930;8.840;2023-03-04T00:46:58;77704.03;;;-145.72;100.00
15914;BME280;8055;51.930;8.840;2023-03-04T00:49:23;77706.09;;;-145.72;100.00
15914;BME280;8055;51.930;8.840;2023-03-04T00:51:49;77704.03;;;-145.72;100.00
15914;BME280;8055;51.930;8.840;2023-03-04T00:54:14;77699.88;;;-145.72;100.00
15914;BME280;8055;51.930;8.840;2023-03-04T00:56:39;77706.09;;;-145.72;100.00
15914;BME280;8055;51.930;8.840;2023-03-04T00:59:05;77699.88;;;-145.72;100.00
15914;BME280;8055;51.930;8.840;2023-03-04T01:01:30;77699.88;;;-145.72;100.00
15914;BME280;8055;51.930;8.840;2023-03-04T01:03:55;77691.59;;;-145.72;100.00
15914;BME280;8055;51.930;8.840;2023-03-04T01:06:21;77685.38;;;-145.72;100.00
15914;BME280;8055;51.930;8.840;2023-03-04T01:08:46;77675.03;;;-145.72;100.00
15914;BME280;8055;51.930;8.840;2023-03-04T01:11:12;77681.25;;;-145.72;100.00
15914;BME280;8055;51.930;8.840;2023-03-04T01:13:37;77662.63;;;-145.72;100.00
15914;BME280;8055;51.930;8.840;2023-03-04T01:16:04;77664.69;;;-145.72;100.00
15914;BME280;8055;51.930;8.840;2023-03-04T01:18:29;77652.25;;;-145.72;100.00
15914;BME280;8055;51.930;8.840;2023-03-04T01:20:55;77646.06;;;-145.72;100.00
15914;BME280;8055;51.930;8.840;2023-03-04T01:23:21;77646.06;;;-145.72;100.00
15914;BME280;8055;51.930;8.840;2023-03-04T01:25:46;77650.19;;;-145.72;100.00
15914;BME280;8055;51.930;8.840;2023-03-04T01:28:11;77639.84;;;-145.72;100.00
15914;BME280;8055;51.930;8.840;2023-03-04T01:30:37;77621.22;;;-145.72;100.00
15914;BME280;8055;51.930;8.840;2023-03-04T01:33:02;77621.22;;;-145.72;100.00
15914;BME280;8055;51.930;8.840;2023-03-04T01:35:27;77621.22;;;-145.72;100.00
15914;BME280;8055;51.930;8.840;2023-03-04T01:37:53;77606.72;;;-145.72;100.00
15914;BME280;8055;51.930;8.840;2023-03-04T01:40:18;77608.78;;;-145.72;100.00
15914;BME280;8055;51.930;8.840;2023-03-04T01:42:44;77604.66;;;-145.72;100.00
15914;BME280;8055;51.930;8.840;2023-03-04T01:45:19;77598.44;;;-145.72;100.00
15914;BME280;8055;51.930;8.840;2023-03-04T01:47:46;77590.16;;;-145.72;100.00
15914;BME280;8055;51.930;8.840;2023-03-04T01:50:29;77579.81;;;-145.72;100.00
15914;BME280;8055;51.930;8.840;2023-03-04T01:52:55;77586.00;;;-145.72;100.00
15914;BME280;8055;51.930;8.840;2023-03-04T01:55:22;77575.66;;;-145.72;100.00
15914;BME280;8055;51.930;8.840;2023-03-04T01:57:49;77569.47;;;-145.72;100.00
15914;BME280;8055;51.930;8.840;2023-03-04T02:02:51;77571.53;;;-145.72;100.00
15914;BME280;8055;51.930;8.840;2023-03-04T02:05:18;77563.25;;;-145.72;100.00
15914;BME280;8055;51.930;8.840;2023-03-04T02:07:44;77554.97;;;-145.72;100.00
15914;BME280;8055;51.930;8.840;2023-03-04T02:10:10;77550.81;;;-145.72;100.00
15914;BME280;8055;51.930;8.840;2023-03-04T02:12:37;77552.91;;;-145.72;100.00
15914;BME280;8055;51.930;8.840;2023-03-04T02:15:03;77550.81;;;-145.72;100.00
15914;BME280;8055;51.930;8.840;2023-03-04T02:17:31;77544.63;;;-145.72;100.00
15914;BME280;8055;51.930;8.840;2023-03-04T02:20:09;77542.53;;;-145.72;100.00
15914;BME280;8055;51.930;8.840;2023-03-04T02:22:46;77550.81;;;-145.72;100.00
15914;BME280;8055;51.930;8.840;2023-03-04T02:25:29;77548.75;;;-145.72;100.00
15914;BME280;8055;51.930;8.840;2023-03-04T02:27:55;77546.69;;;-145.72;100.00
15914;BME280;8055;51.930;8.840;2023-03-04T02:30:22;77546.69;;;-145.72;100.00
15914;BME280;8055;51.930;8.840;2023-03-04T02:32:50;77544.63;;;-145.72;100.00
15914;BME280;8055;51.930;8.840;2023-03-04T02:35:16;77542.53;;;-145.72;100.00
15914;BME280;8055;51.930;8.840;2023-03-04T02:37:42;77542.53;;;-145.72;100.00
15914;BME280;8055;51.930;8.840;2023-03-04T02:40:14;77530.13;;;-145.72;100.00
15914;BME280;8055;51.930;8.840;2023-03-04T02:42:43;77530.13;;;-145.72;100.00
15914;BME280;8055;51.930;8.840;2023-03-04T02:45:45;77521.84;;;-145.72;100.00
15914;BME280;8055;51.930;8.840;2023-03-04T02:48:12;77521.84;;;-145.72;100.00
15914;BME280;8055;51.930;8.840;2023-03-04T02:50:45;77521.84;;;-145.72;100.00
15914;BME280;8055;51.930;8.840;2023-03-04T02:53:11;77517.69;;;-145.72;100.00
15914;BME280;8055;51.930;8.840;2023-03-04T02:55:37;77513.56;;;-145.72;100.00
15914;BME280;8055;51.930;8.840;2023-03-04T02:58:02;77509.41;;;-145.72;100.00
15914;BME280;8055;51.930;8.840;2023-03-04T03:00:28;77497.00;;;-145.72;100.00
15914;BME280;8055;51.930;8.840;2023-03-04T03:02:54;77509.41;;;-145.72;100.00
15914;BME280;8055;51.930;8.840;2023-03-04T03:05:23;77517.69;;;-145.72;100.00
15914;BME280;8055;51.930;8.840;2023-03-04T03:07:49;77517.69;;;-145.72;100.00
15914;BME280;8055;51.930;8.840;2023-03-04T03:10:14;77503.22;;;-145.72;100.00
15914;BME280;8055;51.930;8.840;2023-03-04T03:12:39;77499.06;;;-145.72;100.00
15914;BME280;8055;51.930;8.840;2023-03-04T03:15:06;77503.22;;;-145.72;100.00
15914;BME280;8055;51.930;8.840;2023-03-04T03:17:31;77497.00;;;-145.72;100.00
15914;BME280;8055;51.930;8.840;2023-03-04T03:19:57;77499.06;;;-145.72;100.00
15914;BME280;8055;51.930;8.840;2023-03-04T03:22:22;77494.94;;;-145.72;100.00
15914;BME280;8055;51.930;8.840;2023-03-04T03:24:47;77492.88;;;-145.72;100.00
15914;BME280;8055;51.930;8.840;2023-03-04T03:27:13;77488.72;;;-145.72;100.00
15914;BME280;8055;51.930;8.840;2023-03-04T03:29:38;77492.88;;;-145.72;100.00
15914;BME280;8055;51.930;8.840;2023-03-04T03:32:04;77484.59;;;-145.72;100.00
15914;BME280;8055;51.930;8.840;2023-03-04T03:34:29;77490.78;;;-145.72;100.00
15914;BME280;8055;51.930;8.840;2023-03-04T03:36:54;77482.50;;;-145.72;100.00
15914;BME280;8055;51.930;8.840;2023-03-04T03:39:20;77476.31;;;-145.72;100.00
15914;BME280;8055;51.930;8.840;2023-03-04T03:41:46;77488.72;;;-145.72;100.00
15914;BME280;8055;51.930;8.840;2023-03-04T03:44:11;77480.44;;;-145.72;100.00
15914;BME280;8055;51.930;8.840;2023-03-04T03:46:37;77468.03;;;-145.72;100.00
15914;BME280;8055;51.930;8.840;2023-03-04T03:49:02;77474.22;;;-145.72;100.00
15914;BME280;8055;51.930;8.840;2023-03-04T03:51:27;77470.09;;;-145.72;100.00
15914;BME280;8055;51.930;8.840;2023-03-04T03:53:53;77470.09;;;-145.72;100.00
15914;BME280;8055;51.930;8.840;2023-03-04T03:56:18;77470.09;;;-145.72;100.00
15914;BME280;8055;51.930;8.840;2023-03-04T03:58:43;77472.16;;;-145.72;100.00
15914;BME280;8055;51.930;8.840;2023-03-04T04:01:09;77465.94;;;-145.72;100.00
15914;BME280;8055;51.930;8.840;2023-03-04T04:03:34;77463.88;;;-145.72;100.00
15914;BME280;8055;51.930;8.840;2023-03-04T04:06:00;77465.94;;;-145.72;100.00
15914;BME280;8055;51.930;8.840;2023-03-04T04:08:25;77463.88;;;-145.72;100.00
15914;BME280;8055;51.930;8.840;2023-03-04T04:10:51;77457.66;;;-145.72;100.00
15914;BME280;8055;51.930;8.840;2023-03-04T04:13:16;77459.75;;;-145.72;100.00
15914;BME280;8055;51.930;8.840;2023-03-04T04:15:41;77459.75;;;-145.72;100.00
15914;BME280;8055;51.930;8.840;2023-03-04T04:18:08;77463.88;;;-145.72;100.00
15914;BME280;8055;51.930;8.840;2023-03-04T04:20:34;77461.81;;;-145.72;100.00
15914;BME280;8055;51.930;8.840;2023-03-04T04:23:00;77455.59;;;-145.72;100.00
15914;BME280;8055;51.930;8.840;2023-03-04T04:25:25;77449.38;;;-145.72;100.00
15914;BME280;8055;51.930;8.840;2023-03-04T04:27:50;77447.31;;;-145.72;100.00
15914;BME280;8055;51.930;8.840;2023-03-04T04:30:16;77447.31;;;-145.72;100.00
15914;BME280;8055;51.930;8.840;2023-03-04T04:32:41;77447.31;;;-145.72;100.00
15914;BME280;8055;51.930;8.840;2023-03-04T04:35:07;77447.31;;;-145.72;100.00
15914;BME280;8055;51.930;8.840;2023-03-04T04:37:33;77451.47;;;-145.72;100.00
15914;BME280;8055;51.930;8.840;2023-03-04T04:39:58;77447.31;;;-145.72;100.00
15914;BME280;8055;51.930;8.840;2023-03-04T04:42:24;77443.19;;;-145.72;100.00
15914;BME280;8055;51.930;8.840;2023-03-04T04:44:49;77441.09;;;-145.72;100.00
15914;BME280;8055;51.930;8.840;2023-03-04T04:47:14;77436.97;;;-145.72;100.00
15914;BME280;8055;51.930;8.840;2023-03-04T04:49:40;77443.19;;;-145.72;100.00
15914;BME280;8055;51.930;8.840;2023-03-04T04:52:05;77439.03;;;-145.72;100.00
15914;BME280;8055;51.930;8.840;2023-03-04T04:54:31;77445.25;;;-145.72;100.00
15914;BME280;8055;51.930;8.840;2023-03-04T04:56:56;77430.75;;;-145.72;100.00
15914;BME280;8055;51.930;8.840;2023-03-04T04:59:22;77428.69;;;-145.72;100.00
15914;BME280;8055;51.930;8.840;2023-03-04T05:01:47;77430.75;;;-145.72;100.00
15914;BME280;8055;51.930;8.840;2023-03-04T05:04:12;77434.91;;;-145.72;100.00
15914;BME280;8055;51.930;8.840;2023-03-04T05:06:38;77439.03;;;-145.72;100.00
15914;BME280;8055;51.930;8.840;2023-03-04T05:09:03;77439.03;;;-145.72;100.00
15914;BME280;8055;51.930;8.840;2023-03-04T05:11:29;77436.97;;;-145.72;100.00
15914;BME280;8055;51.930;8.840;2023-03-04T05:13:54;77441.09;;;-145.72;100.00
15914;BME280;8055;51.930;8.840;2023-03-04T05:16:20;77434.91;;;-145.72;100.00
15914;BME280;8055;51.930;8.840;2023-03-04T05:18:45;77434.91;;;-145.72;100.00
15914;BME280;8055;51.930;8.840;2023-03-04T05:21:11;77441.09;;;-145.72;100.00
15914;BME280;8055;51.930;8.840;2023-03-04T05:23:38;77441.09;;;-145.72;100.00
15914;BME280;8055;51.930;8.840;2023-03-04T05:26:04;77447.31;;;-145.72;100.00
15914;BME280;8055;51.930;8.840;2023-03-04T05:28:31;77443.19;;;-145.72;100.00
15914;BME280;8055;51.930;8.840;2023-03-04T05:30:56;77441.09;;;-145.72;100.00
15914;BME280;8055;51.930;8.840;2023-03-04T05:33:22;77451.47;;;-145.72;100.00
15914;BME280;8055;51.930;8.840;2023-03-04T05:35:48;77428.69;;;-145.72;100.00
15914;BME280;8055;51.930;8.840;2023-03-04T05:38:16;77428.69;;;-145.72;100.00
15914;BME280;8055;51.930;8.840;2023-03-04T05:40:42;77434.91;;;-145.72;100.00
15914;BME280;8055;51.930;8.840;2023-03-04T05:43:08;77449.38;;;-145.72;100.00
15914;BME280;8055;51.930;8.840;2023-03-04T05:45:33;77445.25;;;-145.72;100.00
15914;BME280;8055;51.930;8.840;2023-03-04T05:47:59;77449.38;;;-145.72;100.00
15914;BME280;8055;51.930;8.840;2023-03-04T05:50:25;77449.38;;;-145.72;100.00
15914;BME280;8055;51.930;8.840;2023-03-04T05:52:50;77445.25;;;-145.72;100.00
15914;BME280;8055;51.930;8.840;2023-03-04T05:55:16;77449.38;;;-145.72;100.00
15914;BME280;8055;51.930;8.840;2023-03-04T05:57:42;77451.47;;;-145.72;100.00
15914;BME280;8055;51.930;8.840;2023-03-04T06:00:09;77445.25;;;-145.72;100.00
15914;BME280;8055;51.930;8.840;2023-03-04T06:02:36;77443.19;;;-145.72;100.00
15914;BME280;8055;51.930;8.840;2023-03-04T06:05:02;77430.75;;;-145.72;100.00
15914;BME280;8055;51.930;8.840;2023-03-04T06:07:27;77434.91;;;-145.72;100.00
15914;BME280;8055;51.930;8.840;2023-03-04T06:09:53;77439.03;;;-145.72;100.00
15914;BME280;8055;51.930;8.840;2023-03-04T06:12:18;77439.03;;;-145.72;100.00
15914;BME280;8055;51.930;8.840;2023-03-04T06:14:43;77451.47;;;-145.72;100.00
15914;BME280;8055;51.930;8.840;2023-03-04T06:17:09;77449.38;;;-145.72;100.00
15914;BME280;8055;51.930;8.840;2023-03-04T06:19:34;77455.59;;;-145.72;100.00
15914;BME280;8055;51.930;8.840;2023-03-04T06:22:02;77461.81;;;-145.72;100.00
15914;BME280;8055;51.930;8.840;2023-03-04T06:24:28;77461.81;;;-145.72;100.00
15914;BME280;8055;51.930;8.840;2023-03-04T06:26:53;77463.88;;;-145.72;100.00
15914;BME280;8055;51.930;8.840;2023-03-04T06:29:19;77463.88;;;-145.72;100.00
15914;BME280;8055;51.930;8.840;2023-03-04T06:31:44;77465.94;;;-145.72;100.00
15914;BME280;8055;51.930;8.840;2023-03-04T06:34:09;77468.03;;;-145.72;100.00
15914;BME280;8055;51.930;8.840;2023-03-04T06:36:35;77474.22;;;-145.72;100.00
15914;BME280;8055;51.930;8.840;2023-03-04T06:39:05;77472.16;;;-145.72;100.00
15914;BME280;8055;51.930;8.840;2023-03-04T06:41:31;77468.03;;;-145.72;100.00
15914;BME280;8055;51.930;8.840;2023-03-04T06:43:56;77463.88;;;-145.72;100.00
15914;BME280;8055;51.930;8.840;2023-03-04T06:46:22;77463.88;;;-145.72;100.00
15914;BME280;8055;51.930;8.840;2023-03-04T06:48:47;77457.66;;;-145.72;100.00
15914;BME280;8055;51.930;8.840;2023-03-04T06:51:13;77463.88;;;-145.72;100.00
15914;BME280;8055;51.930;8.840;2023-03-04T06:53:39;77465.94;;;-145.72;100.00
15914;BME280;8055;51.930;8.840;2023-03-04T06:56:07;77459.75;;;-145.72;100.00
15914;BME280;8055;51.930;8.840;2023-03-04T06:58:32;77459.75;;;-145.72;100.00
15914;BME280;8055;51.930;8.840;2023-03-04T07:01:13;77447.31;;;-145.72;100.00
15914;BME280;8055;51.930;8.840;2023-03-04T07:03:39;77455.59;;;-145.72;100.00
15914;BME280;8055;51.930;8.840;2023-03-04T07:06:05;77453.53;;;-145.72;100.00
15914;BME280;8055;51.930;8.840;2023-03-04T07:08:31;77449.38;;;-145.72;100.00
15914;BME280;8055;51.930;8.840;2023-03-04T07:10:56;77449.38;;;-145.72;100.00
15914;BME280;8055;51.930;8.840;2023-03-04T07:13:22;77447.31;;;-145.72;100.00
15914;BME280;8055;51.930;8.840;2023-03-04T07:15:47;77451.47;;;-145.72;100.00
15914;BME280;8055;51.930;8.840;2023-03-04T07:18:12;77441.09;;;-145.72;100.00
15914;BME280;8055;51.930;8.840;2023-03-04T07:20:38;77436.97;;;-145.72;100.00
15914;BME280;8055;51.930;8.840;2023-03-04T07:23:03;77426.63;;;-145.72;100.00
15914;BME280;8055;51.930;8.840;2023-03-04T07:25:28;77428.69;;;-145.72;100.00
15914;BME280;8055;51.930;8.840;2023-03-04T07:27:54;77408.00;;;-145.72;100.00
15914;BME280;8055;51.930;8.840;2023-03-04T07:30:19;77399.72;;;-145.72;100.00
15914;BME280;8055;51.930;8.840;2023-03-04T07:32:44;77399.72;;;-145.72;100.00
15914;BME280;8055;51.930;8.840;2023-03-04T07:35:10;77399.72;;;-145.72;100.00
15914;BME280;8055;51.930;8.840;2023-03-04T07:37:35;77405.91;;;-145.72;100.00
15914;BME280;8055;51.930;8.840;2023-03-04T07:40:01;77399.72;;;-145.72;100.00
15914;BME280;8055;51.930;8.840;2023-03-04T07:42:26;77399.72;;;-145.72;100.00
15914;BME280;8055;51.930;8.840;2023-03-04T07:44:51;77389.34;;;-145.72;100.00
15914;BME280;8055;51.930;8.840;2023-03-04T07:47:19;77385.22;;;-145.72;100.00
15914;BME280;8055;51.930;8.840;2023-03-04T07:49:44;77379.00;;;-145.72;100.00
15914;BME280;8055;51.930;8.840;2023-03-04T07:52:10;77376.94;;;-145.72;100.00
15914;BME280;8055;51.930;8.840;2023-03-04T07:54:38;77383.16;;;-145.72;100.00
15914;BME280;8055;51.930;8.840;2023-03-04T07:57:03;77374.88;;;-145.72;100.00
15914;BME280;8055;51.930;8.840;2023-03-04T07:59:29;77376.94;;;-145.72;100.00
15914;BME280;8055;51.930;8.840;2023-03-04T08:01:54;77358.31;;;-145.72;100.00
15914;BME280;8055;51.930;8.840;2023-03-04T08:04:20;77360.38;;;-145.72;100.00
15914;BME280;8055;51.930;8.840;2023-03-04T08:06:45;77343.81;;;-145.72;100.00
15914;BME280;8055;51.930;8.840;2023-03-04T08:09:13;77347.94;;;-145.72;100.00
15914;BME280;8055;51.930;8.840;2023-03-04T08:11:39;77331.41;;;-145.72;100.00
15914;BME280;8055;51.930;8.840;2023-03-04T08:14:04;77325.19;;;-145.72;100.00
15914;BME280;8055;51.930;8.840;2023-03-04T08:16:30;77327.25;;;-145.72;100.00
15914;BME280;8055;51.930;8.840;2023-03-04T08:18:57;77329.31;;;-145.72;100.00
15914;BME280;8055;51.930;8.840;2023-03-04T08:21:24;77321.03;;;-145.72;100.00
15914;BME280;8055;51.930;8.840;2023-03-04T08:23:50;77314.84;;;-145.72;100.00
15914;BME280;8055;51.930;8.840;2023-03-04T08:28:43;77298.28;;;-145.72;100.00
15914;BME280;8055;51.930;8.840;2023-03-04T08:31:12;77306.56;;;-145.72;100.00
15914;BME280;8055;51.930;8.840;2023-03-04T08:33:38;77283.78;;;-145.72;100.00
15914;BME280;8055;51.930;8.840;2023-03-04T08:36:03;77275.50;;;-145.72;100.00
15914;BME280;8055;51.930;8.840;2023-03-04T08:38:29;77275.50;;;-145.72;100.00
15914;BME280;8055;51.930;8.840;2023-03-04T08:40:56;77271.38;;;-145.72;100.00
15914;BME280;8055;51.930;8.840;2023-03-04T08:43:23;77271.38;;;-145.72;100.00
15914;BME280;8055;51.930;8.840;2023-03-04T08:45:49;77277.56;;;-145.72;100.00
15914;BME280;8055;51.930;8.840;2023-03-04T08:48:15;77290.00;;;-145.72;100.00
15914;BME280;8055;51.930;8.840;2023-03-04T08:50:42;77294.13;;;-145.72;100.00
15914;BME280;8055;51.930;8.840;2023-03-04T08:53:08;77306.56;;;-145.72;100.00
15914;BME280;8055;51.930;8.840;2023-03-04T08:55:33;77294.13;;;-145.72;100.00
15914;BME280;8055;51.930;8.840;2023-03-04T08:57:59;77296.19;;;-145.72;100.00
15914;BME280;8055;51.930;8.840;2023-03-04T09:00:26;77302.41;;;-145.72;100.00
15914;BME280;8055;51.930;8.840;2023-03-04T09:02:52;77298.28;;;-145.72;100.00
15914;BME280;8055;51.930;8.840;2023-03-04T09:05:17;77287.94;;;-145.72;100.00
15914;BME280;8055;51.930;8.840;2023-03-04T09:07:42;77277.56;;;-145.72;100.00
15914;BME280;8055;51.930;8.840;2023-03-04T09:10:08;77277.56;;;-145.72;100.00
15914;BME280;8055;51.930;8.840;2023-03-04T09:12:34;77277.56;;;-145.72;100.00
15914;BME280;8055;51.930;8.840;2023-03-04T09:14:59;77275.50;;;-145.72;100.00
15914;BME280;8055;51.930;8.840;2023-03-04T09:17:25;77265.16;;;-145.72;100.00
15914;BME280;8055;51.930;8.840;2023-03-04T09:19:50;77273.44;;;-145.72;100.00
15914;BME280;8055;51.930;8.840;2023-03-04T09:22:16;77261.00;;;-145.72;100.00
15914;BME280;8055;51.930;8.840;2023-03-04T09:24:41;77261.00;;;-145.72;100.00
15914;BME280;8055;51.930;8.840;2023-03-04T09:27:08;77254.81;;;-145.72;100.00
15914;BME280;8055;51.930;8.840;2023-03-04T09:29:33;77258.94;;;-145.72;100.00
15914;BME280;8055;51.930;8.840;2023-03-04T09:31:58;77244.44;;;-145.72;100.00
15914;BME280;8055;51.930;8.840;2023-03-04T09:34:24;77250.66;;;-145.72;100.00
15914;BME280;8055;51.930;8.840;2023-03-04T09:36:49;77258.94;;;-145.72;100.00
15914;BME280;8055;51.930;8.840;2023-03-04T09:39:15;77248.59;;;-145.72;100.00
15914;BME280;8055;51.930;8.840;2023-03-04T09:41:45;77258.94;;;-145.72;100.00
15914;BME280;8055;51.930;8.840;2023-03-04T09:44:30;77246.53;;;-145.72;100.00
15914;BME280;8055;51.930;8.840;2023-03-04T09:47:01;77244.44;;;-145.72;100.00
15914;BME280;8055;51.930;8.840;2023-03-04T09:49:27;77244.44;;;-145.72;100.00
15914;BME280;8055;51.930;8.840;2023-03-04T09:51:58;77240.31;;;-145.72;100.00
15914;BME280;8055;51.930;8.840;2023-03-04T10:05:50;77242.38;;;-145.72;100.00
15914;BME280;8055;51.930;8.840;2023-03-04T10:11:04;77232.03;;;-145.72;100.00
15914;BME280;8055;51.930;8.840;2023-03-04T10:16:26;77190.63;;;-145.72;100.00
15914;BME280;8055;51.930;8.840;2023-03-04T10:19:07;77182.34;;;-145.72;100.00
15914;BME280;8055;51.930;8.840;2023-03-04T10:21:41;77180.28;;;-145.72;100.00
15914;BME280;8055;51.930;8.840;2023-03-04T10:24:12;77182.34;;;-145.72;100.00
15914;BME280;8055;51.930;8.840;2023-03-04T10:26:41;77182.34;;;-145.72;100.00
15914;BME280;8055;51.930;8.840;2023-03-04T10:29:14;77190.63;;;-145.72;100.00
15914;BME280;8055;51.930;8.840;2023-03-04T10:31:39;77198.91;;;-145.72;100.00
15914;BME280;8055;51.930;8.840;2023-03-04T10:34:09;77178.22;;;-145.72;100.00
15914;BME280;8055;51.930;8.840;2023-03-04T10:37:02;77163.72;;;-145.72;100.00
15914;BME280;8055;51.930;8.840;2023-03-04T10:39:35;77145.09;;;-145.72;100.00
15914;BME280;8055;51.930;8.840;2023-03-04T10:42:22;77128.53;;;-145.72;100.00
15914;BME280;8055;51.930;8.840;2023-03-04T10:44:57;77126.47;;;-145.72;100.00
15914;BME280;8055;51.930;8.840;2023-03-04T10:47:24;77122.31;;;-145.72;100.00
15914;BME280;8055;51.930;8.840;2023-03-04T10:49:52;77101.63;;;-145.72;100.00
15914;BME280;8055;51.930;8.840;2023-03-04T10:52:31;77089.22;;;-145.72;100.00
15914;BME280;8055;51.930;8.840;2023-03-04T10:55:03;77080.94;;;-145.72;100.00
15914;BME280;8055;51.930;8.840;2023-03-04T10:57:38;77089.22;;;-145.72;100.00
15914;BME280;8055;51.930;8.840;2023-03-04T11:02:45;77116.13;;;-145.72;100.00
15914;BME280;8055;51.930;8.840;2023-03-04T11:05:17;77132.69;;;-145.72;100.00
15914;BME280;8055;51.930;8.840;2023-03-04T11:10:21;77140.97;;;-145.72;100.00
15914;BME280;8055;51.930;8.840;2023-03-04T11:15:57;77140.97;;;-145.72;100.00
15914;BME280;8055;51.930;8.840;2023-03-04T11:18:41;77143.03;;;-145.72;100.00
15914;BME280;8055;51.930;8.840;2023-03-04T11:21:14;77140.97;;;-145.72;100.00
15914;BME280;8055;51.930;8.840;2023-03-04T11:23:49;77153.38;;;-145.72;100.00
15914;BME280;8055;51.930;8.840;2023-03-04T11:26:20;77130.59;;;-145.72;100.00
15914;BME280;8055;51.930;8.840;2023-03-04T11:31:36;77109.91;;;-145.72;100.00
15914;BME280;8055;51.930;8.840;2023-03-04T11:37:24;77105.78;;;-145.72;100.00
15914;BME280;8055;51.930;8.840;2023-03-04T11:40:10;77111.97;;;-145.72;100.00
15914;BME280;8055;51.930;8.840;2023-03-04T11:42:40;77093.34;;;-145.72;100.00
15914;BME280;8055;51.930;8.840;2023-03-04T11:45:18;77087.13;;;-145.72;100.00
15914;BME280;8055;51.930;8.840;2023-03-04T11:50:50;77058.16;;;-145.72;100.00
15914;BME280;8055;51.930;8.840;2023-03-04T11:56:29;77062.31;;;-145.72;100.00
15914;BME280;8055;51.930;8.840;2023-03-04T11:59:01;77080.94;;;-145.72;100.00
15914;BME280;8055;51.930;8.840;2023-03-04T12:12:21;77109.91;;;-145.72;100.00
15914;BME280;8055;51.930;8.840;2023-03-04T12:15:04;77118.19;;;-145.72;100.00
15914;BME280;8055;51.930;8.840;2023-03-04T12:17:59;77107.84;;;-145.72;100.00
15914;BME280;8055;51.930;8.840;2023-03-04T12:21:02;77109.91;;;-145.72;100.00
15914;BME280;8055;51.930;8.840;2023-03-04T12:26:30;77093.34;;;-145.72;100.00
15914;BME280;8055;51.930;8.840;2023-03-04T12:34:58;77033.31;;;-145.72;100.00
15914;BME280;8055;51.930;8.840;2023-03-04T12:40:22;77000.19;;;-145.72;100.00
15914;BME280;8055;51.930;8.840;2023-03-04T12:43:51;76987.78;;;-145.72;100.00
15914;BME280;8055;51.930;8.840;2023-03-04T12:46:06;76979.50;;;-145.72;100.00
15914;BME280;8055;51.930;8.840;2023-03-04T12:51:43;76965.00;;;-145.72;100.00
15914;BME280;8055;51.930;8.840;2023-03-04T12:59:33;76948.47;;;-145.72;100.00
15914;BME280;8055;51.930;8.840;2023-03-04T13:04:52;76927.75;;;-145.72;100.00
15914;BME280;8055;51.930;8.840;2023-03-04T13:07:42;76913.28;;;-145.72;100.00
15914;BME280;8055;51.930;8.840;2023-03-04T13:10:15;76915.34;;;-145.72;100.00
15914;BME280;8055;51.930;8.840;2023-03-04T13:12:51;76909.13;;;-145.72;100.00
15914;BME280;8055;51.930;8.840;2023-03-04T13:15:27;76900.84;;;-145.72;100.00
15914;BME280;8055;51.930;8.840;2023-03-04T13:17:58;76917.41;;;-145.72;100.00
15914;BME280;8055;51.930;8.840;2023-03-04T13:36:03;76987.78;;;-145.72;100.00
15914;BME280;8055;51.930;8.840;2023-03-04T13:38:31;76967.09;;;-145.72;100.00
15914;BME280;8055;51.930;8.840;2023-03-04T13:41:28;76960.88;;;-145.72;100.00
15914;BME280;8055;51.930;8.840;2023-03-04T13:44:04;76958.81;;;-145.72;100.00
15914;BME280;8055;51.930;8.840;2023-03-04T13:46:48;76975.38;;;-145.72;100.00
15914;BME280;8055;51.930;8.840;2023-03-04T13:49:20;76967.09;;;-145.72;100.00
15914;BME280;8055;51.930;8.840;2023-03-04T13:51:49;76979.50;;;-145.72;100.00
15914;BME280;8055;51.930;8.840;2023-03-04T13:56:46;76998.13;;;-145.72;100.00
15914;BME280;8055;51.930;8.840;2023-03-04T14:02:00;77022.97;;;-145.72;100.00
15914;BME280;8055;51.930;8.840;2023-03-04T14:04:32;77025.03;;;-145.72;100.00
15914;BME280;8055;51.930;8.840;2023-03-04T14:07:00;77027.13;;;-145.72;100.00
15914;BME280;8055;51.930;8.840;2023-03-04T14:09:31;77031.25;;;-145.72;100.00
15914;BME280;8055;51.930;8.840;2023-03-04T14:12:02;77051.94;;;-145.72;100.00
15914;BME280;8055;51.930;8.840;2023-03-04T14:14:41;77047.81;;;-145.72;100.00
15914;BME280;8055;51.930;8.840;2023-03-04T14:17:15;77043.66;;;-145.72;100.00
15914;BME280;8055;51.930;8.840;2023-03-04T14:19:44;77056.09;;;-145.72;100.00
15914;BME280;8055;51.930;8.840;2023-03-04T14:22:28;77045.75;;;-145.72;100.00